Time;durP1;ratioP1;P1;durP2;ratioP2;P2;SDS_P1;SDS_P2;PMS_P1;PMS_P2;Temp;Humidity;BMP_temperature;BMP_pressure;BME280_temperature;BME280_humidity;BME280_pressure;Samples;Min_cycle;Max_cycle;Signal;HPM_P1;HPM_P2
2023/05/15 00:01:35;;;;;;;25.07;13.80;;;;;;;13.07;72.71;100243.69;5078674;28;20496;-70
2023/05/15 00:04:01;;;;;;;19.27;12.23;;;;;;;13.09;72.64;100246.28;5076370;28;20440;-70
2023/05/15 00:06:27;;;;;;;19.98;13.15;;;;;;;13.09;72.75;100237.50;5089591;28;20028;-70
2023/05/15 00:08:52;;;;;;;20.25;12.38;;;;;;;13.11;72.43;100243.63;5076414;28;20524;-70
2023/05/15 00:11:18;;;;;;;23.57;14.70;;;;;;;13.07;72.92;100229.56;5090298;28;20044;-70
2023/05/15 00:13:43;;;;;;;19.63;12.73;;;;;;;13.06;72.82;100233.13;5095576;28;20036;-70
2023/05/15 00:16:09;;;;;;;22.27;13.65;;;;;;;13.03;73.11;100226.13;5096375;28;20031;-70
2023/05/15 00:18:35;;;;;;;21.43;15.17;;;;;;;13.01;73.46;100217.31;5096443;28;20063;-70
2023/05/15 00:21:00;;;;;;;21.65;13.02;;;;;;;13.01;73.54;100213.81;5096521;28;20024;-70
2023/05/15 00:23:25;;;;;;;25.07;12.80;;;;;;;13.01;73.12;100221.75;5095189;28;20442;-70
2023/05/15 00:25:51;;;;;;;25.10;14.33;;;;;;;13.00;73.33;100220.00;5096324;28;20090;-70
2023/05/15 00:28:17;;;;;;;24.90;14.25;;;;;;;13.01;73.55;100216.47;5096519;28;20478;-70
2023/05/15 00:30:42;;;;;;;23.20;13.90;;;;;;;13.02;73.27;100220.84;5095257;28;20090;-70
2023/05/15 00:33:07;;;;;;;22.77;13.50;;;;;;;13.06;73.40;100219.91;5093180;28;20036;-70
2023/05/15 00:35:33;;;;;;;24.37;12.03;;;;;;;13.07;73.39;100219.00;5079887;28;20028;-70
2023/05/15 00:37:59;;;;;;;21.98;12.95;;;;;;;13.11;73.40;100211.91;5076215;28;20067;-70
2023/05/15 00:40:26;;;;;;;19.07;12.57;;;;;;;13.10;73.39;100211.03;5083813;28;20480;-70
2023/05/15 00:42:53;;;;;;;21.73;13.15;;;;;;;13.14;73.62;100218.03;5076048;28;20127;-70
2023/05/15 00:45:20;;;;;;;24.35;13.55;;;;;;;13.13;73.80;100210.97;5079701;28;20035;-70
2023/05/15 00:47:46;;;;;;;23.87;14.90;;;;;;;13.15;73.96;100209.19;5079543;28;20201;-70
2023/05/15 00:50:12;;;;;;;24.27;13.35;;;;;;;13.15;73.83;100198.63;5078643;28;20068;-70
2023/05/15 00:52:37;;;;;;;21.15;12.68;;;;;;;13.18;73.51;100206.50;5081427;28;20043;-70
2023/05/15 00:55:05;;;;;;;22.27;12.60;;;;;;;13.21;73.78;100201.16;5093348;28;20016;-70
2023/05/15 00:57:31;;;;;;;25.45;13.82;;;;;;;13.19;73.91;100197.69;5079712;28;20025;-70
2023/05/15 00:59:59;;;;;;;25.67;13.57;;;;;;;13.21;73.54;100197.63;5079498;28;20033;-71
2023/05/15 01:02:25;;;;;;;22.13;13.00;;;;;;;13.21;73.91;100203.81;5079406;28;20028;-70
2023/05/15 01:04:51;;;;;;;21.83;13.10;;;;;;;13.24;73.86;100202.88;5081738;28;20431;-70
2023/05/15 01:07:17;;;;;;;23.63;13.82;;;;;;;13.25;73.94;100198.47;5090333;28;20043;-70
2023/05/15 01:09:43;;;;;;;20.77;12.43;;;;;;;13.27;73.73;100194.91;5090419;28;20391;-70
2023/05/15 01:12:10;;;;;;;20.95;12.50;;;;;;;13.28;73.65;100194.00;5098532;28;20024;-70
2023/05/15 01:14:36;;;;;;;24.90;13.95;;;;;;;13.29;73.95;100189.56;5079277;28;20384;-70
2023/05/15 01:17:01;;;;;;;23.13;13.50;;;;;;;13.27;74.01;100191.38;5079037;28;20032;-70
2023/05/15 01:19:27;;;;;;;22.87;13.07;;;;;;;13.27;73.81;100191.38;5077979;28;20035;-70
2023/05/15 01:22:07;;;;;;;20.13;14.07;;;;;;;13.27;73.97;100191.38;5079161;28;20631;-70
2023/05/15 01:24:41;;;;;;;24.65;17.02;;;;;;;13.26;74.27;100197.56;5079116;28;20108;-70
2023/05/15 01:27:17;;;;;;;25.15;15.07;;;;;;;13.23;74.12;100201.13;5079174;28;20040;-70
2023/05/15 01:29:46;;;;;;;23.75;14.85;;;;;;;13.21;74.45;100198.53;5079251;28;20021;-70
2023/05/15 01:32:22;;;;;;;24.77;15.33;;;;;;;13.19;74.57;100200.31;5090170;28;20020;-70
2023/05/15 01:35:12;;;;;;;24.20;15.02;;;;;;;13.17;74.79;100190.66;5079129;28;20484;-70
2023/05/15 01:37:44;;;;;;;26.00;16.40;;;;;;;13.18;74.50;100201.22;5078961;28;20029;-70
2023/05/15 01:40:13;;;;;;;26.10;15.50;;;;;;;13.19;74.64;100197.69;5085792;28;20091;-70
2023/05/15 01:42:55;;;;;;;23.70;14.95;;;;;;;13.18;74.64;100193.28;5079641;28;20039;-71
2023/05/15 01:45:23;;;;;;;30.80;16.27;;;;;;;13.16;74.72;100192.44;5078421;28;20063;-70
2023/05/15 01:47:52;;;;;;;25.50;15.40;;;;;;;13.19;74.70;100200.31;5078291;28;20048;-70
2023/05/15 01:50:19;;;;;;;26.42;15.23;;;;;;;13.19;74.64;100192.38;5078589;28;20035;-70
2023/05/15 01:52:57;;;;;;;21.25;13.88;;;;;;;13.19;74.57;100192.38;5083352;28;20427;-70
2023/05/15 01:55:24;;;;;;;23.70;14.20;;;;;;;13.20;74.57;100190.59;5078294;28;20035;-70
2023/05/15 01:57:52;;;;;;;23.60;14.07;;;;;;;13.19;74.52;100187.09;5078542;28;20031;-70
2023/05/15 02:00:18;;;;;;;26.00;14.75;;;;;;;13.19;74.72;100187.09;5078390;28;20044;-70
2023/05/15 02:02:45;;;;;;;22.98;13.60;;;;;;;13.18;74.81;100177.41;5090305;28;20064;-70
2023/05/15 02:05:12;;;;;;;23.63;13.20;;;;;;;13.17;74.48;100186.25;5097609;28;20027;-70
2023/05/15 02:07:41;;;;;;;20.83;12.60;;;;;;;13.16;74.54;100183.63;5087421;28;20086;-70
2023/05/15 02:10:08;;;;;;;20.80;13.23;;;;;;;13.17;74.50;100180.06;5083044;28;20089;-70
2023/05/15 02:12:34;;;;;;;20.50;13.68;;;;;;;13.16;74.57;100180.97;5094120;28;20024;-70
2023/05/15 02:15:02;;;;;;;20.02;12.55;;;;;;;13.18;74.44;100172.13;5078147;28;20028;-70
2023/05/15 02:17:28;;;;;;;19.48;11.60;;;;;;;13.18;74.73;100169.50;5077952;28;20031;-70
2023/05/15 02:19:54;;;;;;;18.27;11.70;;;;;;;13.19;74.26;100173.88;5078038;28;20036;-70
2023/05/15 02:22:19;;;;;;;20.13;12.60;;;;;;;13.20;74.54;100175.63;5078105;28;20024;-70
2023/05/15 02:24:45;;;;;;;18.93;12.77;;;;;;;13.21;74.47;100172.06;5076610;28;20037;-70
2023/05/15 02:27:13;;;;;;;20.63;12.47;;;;;;;13.26;74.27;100171.13;5076514;28;20468;-70
2023/05/15 02:30:10;;;;;;;21.23;12.60;;;;;;;13.26;74.47;100168.47;5077807;28;20024;-70
2023/05/15 02:32:35;;;;;;;22.30;12.38;;;;;;;13.28;74.43;100166.69;5088059;28;20024;-70
2023/05/15 02:35:03;;;;;;;21.53;12.73;;;;;;;13.26;74.64;100169.38;5078760;28;20074;-70
2023/05/15 02:37:33;;;;;;;22.33;12.50;;;;;;;13.28;74.48;100167.56;5080437;28;20032;-70
2023/05/15 02:40:00;;;;;;;22.67;13.88;;;;;;;13.27;74.62;100170.22;5083317;28;20035;-70
2023/05/15 02:42:28;;;;;;;22.88;12.77;;;;;;;13.29;74.49;100158.72;5079183;28;20024;-70
2023/05/15 02:44:54;;;;;;;19.63;12.30;;;;;;;13.31;74.51;100161.34;5077485;28;20121;-70
2023/05/15 02:47:21;;;;;;;24.67;13.40;;;;;;;13.32;74.41;100157.78;5076124;28;20475;-70
2023/05/15 02:49:47;;;;;;;22.85;12.77;;;;;;;13.32;74.67;100157.78;5077253;28;20104;-70
2023/05/15 02:52:13;;;;;;;19.88;12.25;;;;;;;13.33;74.60;100159.53;5080891;28;20055;-70
2023/05/15 02:54:39;;;;;;;24.00;13.17;;;;;;;13.34;74.97;100162.16;5077704;28;20024;-70
2023/05/15 02:57:06;;;;;;;22.42;13.50;;;;;;;13.34;74.60;100167.44;5077418;28;20036;-70
2023/05/15 02:59:32;;;;;;;19.63;13.27;;;;;;;13.35;74.64;100168.31;5077470;28;20036;-70
2023/05/15 03:01:58;;;;;;;23.98;13.25;;;;;;;13.32;74.79;100163.06;5085893;28;20413;-70
2023/05/15 03:04:24;;;;;;;24.43;13.40;;;;;;;13.32;74.83;100158.69;5097448;28;20035;-70
2023/05/15 03:06:49;;;;;;;20.50;13.30;;;;;;;13.32;74.79;100150.75;5087860;28;20024;-70
2023/05/15 03:09:15;;;;;;;23.13;13.37;;;;;;;13.31;74.88;100150.75;5077267;28;20090;-70
2023/05/15 03:11:41;;;;;;;21.55;13.23;;;;;;;13.31;74.81;100151.63;5095158;28;20024;-70
2023/05/15 03:14:06;;;;;;;25.17;14.67;;;;;;;13.31;74.75;100156.03;5079877;28;20074;-70
2023/05/15 03:16:32;;;;;;;25.63;14.65;;;;;;;13.29;75.01;100157.84;5075473;28;20063;-70
2023/05/15 03:18:57;;;;;;;23.13;12.70;;;;;;;13.29;74.97;100158.72;5076946;28;20043;-70
2023/05/15 03:21:23;;;;;;;23.67;14.10;;;;;;;13.28;75.03;100159.63;5076868;28;20040;-70
2023/05/15 03:23:48;;;;;;;23.88;13.35;;;;;;;13.28;75.11;100151.69;5076877;28;20033;-70
2023/05/15 03:26:14;;;;;;;26.33;13.97;;;;;;;13.29;75.29;100150.81;5075643;28;20032;-70
2023/05/15 03:28:39;;;;;;;25.50;13.83;;;;;;;13.29;75.22;100149.91;5075894;28;20283;-69
2023/05/15 03:31:07;;;;;;;26.23;13.63;;;;;;;13.29;75.36;100152.56;5076626;28;20106;-69
2023/05/15 03:33:33;;;;;;;24.33;14.80;;;;;;;13.30;75.46;100149.00;5086647;28;20111;-69
2023/05/15 03:35:59;;;;;;;22.45;13.15;;;;;;;13.30;75.31;100149.00;5080361;28;20039;-69
2023/05/15 03:38:24;;;;;;;19.95;13.18;;;;;;;13.32;75.15;100149.84;5076776;28;20040;-69
2023/05/15 03:40:50;;;;;;;22.50;15.03;;;;;;;13.35;75.33;100141.88;5084345;28;20103;-69
2023/05/15 03:43:15;;;;;;;24.63;13.83;;;;;;;13.35;75.13;100136.56;5076663;28;20458;-69
2023/05/15 03:45:41;;;;;;;22.27;13.07;;;;;;;13.35;75.33;100131.28;5081324;28;20116;-69
2023/05/15 03:48:06;;;;;;;26.40;13.23;;;;;;;13.35;75.37;100136.56;5084896;28;20044;-69
2023/05/15 03:50:32;;;;;;;24.87;14.90;;;;;;;13.35;75.35;100139.22;5076603;28;20028;-69
2023/05/15 03:52:58;;;;;;;24.88;13.57;;;;;;;13.36;75.33;100135.66;5080085;28;20476;-69
2023/05/15 03:55:23;;;;;;;23.17;13.03;;;;;;;13.36;75.51;100140.97;5076512;28;20154;-69
2023/05/15 03:57:49;;;;;;;22.77;13.85;;;;;;;13.37;75.47;100145.34;5080663;28;20028;-69
2023/05/15 04:00:14;;;;;;;24.73;14.53;;;;;;;13.38;75.71;100141.81;5083068;28;20028;-69
2023/05/15 04:02:40;;;;;;;26.63;14.27;;;;;;;13.38;75.67;100136.50;5096780;28;20024;-69
2023/05/15 04:05:06;;;;;;;26.80;14.27;;;;;;;13.38;75.88;100138.31;5092056;28;20150;-69
2023/05/15 04:07:33;;;;;;;21.65;13.77;;;;;;;13.38;75.73;100141.81;5076753;28;20029;-69
2023/05/15 04:10:02;;;;;;;20.93;12.53;;;;;;;13.39;75.36;100140.94;5080318;28;20035;-69
2023/05/15 04:12:29;;;;;;;26.80;12.98;;;;;;;13.41;75.63;100135.59;5091796;28;20092;-69
2023/05/15 04:15:12;;;;;;;23.25;13.13;;;;;;;13.40;75.75;100140.03;5093652;28;20039;-69
2023/05/15 04:17:37;;;;;;;24.90;13.48;;;;;;;13.42;75.65;100137.34;5089280;28;20039;-69
2023/05/15 04:20:04;;;;;;;23.03;14.50;;;;;;;13.42;75.78;100142.63;5100782;28;20024;-69
2023/05/15 04:22:29;;;;;;;22.35;14.18;;;;;;;13.41;75.93;100136.50;5100716;28;20031;-69
2023/05/15 04:24:55;;;;;;;24.97;13.53;;;;;;;13.42;75.83;100147.94;5100806;28;20032;-69
2023/05/15 04:27:20;;;;;;;24.27;13.03;;;;;;;13.42;75.70;100143.53;5098550;28;20028;-69
2023/05/15 04:29:46;;;;;;;23.47;13.60;;;;;;;13.42;75.81;100137.34;5079106;28;20032;-69
2023/05/15 04:32:11;;;;;;;24.10;13.10;;;;;;;13.43;76.15;100136.47;5089729;28;20257;-69
2023/05/15 04:34:36;;;;;;;24.00;14.33;;;;;;;13.44;76.08;100138.22;5078939;28;20028;-69
2023/05/15 04:37:03;;;;;;;20.80;13.87;;;;;;;13.43;76.02;100140.00;5083974;28;20174;-69
2023/05/15 04:39:28;;;;;;;24.47;15.73;;;;;;;13.43;76.10;100133.84;5080286;28;20421;-69
2023/05/15 04:41:54;;;;;;;28.67;13.52;;;;;;;13.44;76.27;100130.28;5085996;28;20088;-69
2023/05/15 04:44:20;;;;;;;25.60;14.13;;;;;;;13.44;75.90;100125.88;5079952;28;20028;-69
2023/05/15 04:46:45;;;;;;;22.45;13.60;;;;;;;13.45;76.09;100138.22;5079845;28;20469;-69
2023/05/15 04:49:11;;;;;;;28.83;15.97;;;;;;;13.45;75.68;100138.22;5079788;28;20563;-69
2023/05/15 04:51:36;;;;;;;23.97;14.30;;;;;;;13.48;75.77;100131.97;5082884;28;20020;-69
2023/05/15 04:54:02;;;;;;;24.25;14.07;;;;;;;13.47;76.12;100139.03;5085099;28;20024;-69
2023/05/15 04:56:27;;;;;;;22.87;14.73;;;;;;;13.47;76.18;100135.50;5100148;28;20168;-69
2023/05/15 04:58:53;;;;;;;25.23;13.63;;;;;;;13.48;76.12;100135.50;5100184;28;20043;-69
2023/05/15 05:01:18;;;;;;;23.90;13.40;;;;;;;13.50;76.47;100132.81;5099787;28;20262;-69
2023/05/15 05:03:44;;;;;;;27.93;14.20;;;;;;;13.49;76.09;100134.59;5099817;28;20020;-69
2023/05/15 05:06:10;;;;;;;25.23;12.70;;;;;;;13.50;76.04;100132.81;5093924;28;20043;-69
2023/05/15 05:08:35;;;;;;;22.02;13.55;;;;;;;13.48;76.24;100126.69;5079675;28;20430;-69
2023/05/15 05:11:02;;;;;;;21.20;12.87;;;;;;;13.49;76.26;100133.72;5092832;28;20042;-69
2023/05/15 05:13:27;;;;;;;22.65;12.15;;;;;;;13.51;76.06;100115.19;5087841;28;20063;-69
2023/05/15 05:15:53;;;;;;;26.60;12.93;;;;;;;13.52;76.14;100127.50;5079177;28;20020;-69
2023/05/15 05:18:18;;;;;;;22.42;12.80;;;;;;;13.51;76.25;100123.13;5079140;28;20077;-69
2023/05/15 05:20:43;;;;;;;25.97;12.53;;;;;;;13.54;75.95;100117.75;5079369;28;20583;-69
2023/05/15 05:23:09;;;;;;;21.50;13.00;;;;;;;13.55;76.11;100123.03;5079091;28;20043;-69
2023/05/15 05:25:34;;;;;;;22.57;13.57;;;;;;;13.54;76.13;100118.66;5079177;28;20544;-69
2023/05/15 05:28:00;;;;;;;20.33;11.75;;;;;;;13.57;76.25;100123.00;5079414;28;20020;-70
2023/05/15 05:30:26;;;;;;;22.40;12.70;;;;;;;13.58;75.98;100116.78;5079032;28;20033;-69
2023/05/15 05:32:51;;;;;;;24.25;13.18;;;;;;;13.57;76.24;100121.22;5090460;28;20031;-70
2023/05/15 05:35:17;;;;;;;24.93;12.10;;;;;;;13.60;76.10;100130.88;5082150;28;20020;-69
2023/05/15 05:37:42;;;;;;;22.47;13.40;;;;;;;13.58;76.38;100138.84;5079803;28;20046;-71
2023/05/15 05:40:09;;;;;;;22.77;13.68;;;;;;;13.55;76.36;100138.91;5085678;28;20051;-71
2023/05/15 05:42:34;;;;;;;22.75;12.52;;;;;;;13.56;76.42;100138.00;5079570;28;20040;-71
2023/05/15 05:45:00;;;;;;;25.83;13.50;;;;;;;13.55;76.48;100133.63;5078944;28;20025;-70
2023/05/15 05:47:25;;;;;;;27.27;14.07;;;;;;;13.56;76.33;100123.91;5078433;28;20027;-71
2023/05/15 05:49:51;;;;;;;28.83;14.60;;;;;;;13.56;76.46;100113.31;5080462;28;20026;-70
2023/05/15 05:52:16;;;;;;;35.25;16.73;;;;;;;13.53;77.01;100116.03;5093547;28;20066;-70
2023/05/15 05:54:44;;;;;;;31.17;14.70;;;;;;;13.53;76.97;100131.88;5082280;28;20362;-67
2023/05/15 05:57:10;;;;;;;30.42;16.77;;;;;;;13.47;77.73;100124.94;5078775;28;20500;-70
2023/05/15 05:59:36;;;;;;;29.10;16.57;;;;;;;13.45;77.72;100124.97;5093912;28;20028;-71
2023/05/15 06:02:02;;;;;;;34.78;18.48;;;;;;;13.41;78.03;100127.66;5078928;28;20055;-70
2023/05/15 06:04:27;;;;;;;29.90;15.90;;;;;;;13.39;78.13;100129.47;5076832;28;20115;-71
2023/05/15 06:06:53;;;;;;;31.90;19.50;;;;;;;13.37;77.98;100144.50;5091553;28;20027;-71
2023/05/15 06:09:18;;;;;;;31.37;15.97;;;;;;;13.33;78.39;100141.91;5078133;28;20056;-70
2023/05/15 06:11:44;;;;;;;33.77;16.97;;;;;;;13.32;78.20;100136.63;5096308;28;20035;-71
2023/05/15 06:14:10;;;;;;;33.88;16.67;;;;;;;13.31;78.50;100142.81;5080070;28;20370;-71
2023/05/15 06:16:35;;;;;;;29.80;16.53;;;;;;;13.33;78.22;100148.94;5077579;28;20056;-70
2023/05/15 06:19:01;;;;;;;30.00;16.95;;;;;;;13.33;78.55;100144.56;5080717;28;20024;-70
2023/05/15 06:21:27;;;;;;;33.83;16.63;;;;;;;13.34;77.98;100141.00;5084089;28;20028;-70
2023/05/15 06:23:52;;;;;;;32.60;15.93;;;;;;;13.37;78.33;100144.50;5086058;28;20025;-71
2023/05/15 06:26:18;;;;;;;30.17;17.60;;;;;;;13.38;78.44;100147.09;5092180;28;20099;-71
2023/05/15 06:28:44;;;;;;;28.17;16.38;;;;;;;13.40;78.36;100152.38;5083620;28;20024;-71
2023/05/15 06:31:09;;;;;;;30.10;16.20;;;;;;;13.40;78.42;100147.09;5076122;28;20030;-71
2023/05/15 06:33:35;;;;;;;31.07;16.37;;;;;;;13.41;78.22;100152.34;5087497;28;20024;-71
2023/05/15 06:36:00;;;;;;;29.80;17.60;;;;;;;13.43;78.16;100149.69;5080586;28;20024;-72
2023/05/15 06:38:26;;;;;;;31.60;16.33;;;;;;;13.44;78.25;100141.75;5077492;28;20150;-73
2023/05/15 06:40:51;;;;;;;29.87;15.33;;;;;;;13.45;78.20;100151.44;5083354;28;20055;-72
2023/05/15 06:43:17;;;;;;;24.98;15.05;;;;;;;13.46;78.26;100149.63;5077131;28;20110;-72
2023/05/15 06:45:42;;;;;;;34.17;15.67;;;;;;;13.46;78.29;100153.19;5081628;28;20043;-72
2023/05/15 06:48:08;;;;;;;22.53;15.40;;;;;;;13.44;78.47;100152.34;5088704;28;20041;-72
2023/05/15 06:50:33;;;;;;;26.10;14.73;;;;;;;13.40;78.70;100149.72;5077489;28;20103;-71
2023/05/15 06:53:00;;;;;;;29.07;16.27;;;;;;;13.37;78.86;100150.63;5079180;28;20115;-72
2023/05/15 06:55:25;;;;;;;32.10;14.57;;;;;;;13.39;78.71;100158.56;5090861;28;20250;-72
2023/05/15 06:57:54;;;;;;;28.90;14.90;;;;;;;13.37;78.95;100158.56;5097711;28;20024;-72
2023/05/15 07:00:19;;;;;;;28.33;16.93;;;;;;;13.35;79.05;100158.63;5097400;28;20111;-72
2023/05/15 07:02:45;;;;;;;27.27;16.15;;;;;;;13.34;79.09;100154.22;5096184;28;20092;-72
2023/05/15 07:05:10;;;;;;;28.47;17.60;;;;;;;13.35;79.09;100163.03;5091563;28;20523;-72
2023/05/15 07:07:36;;;;;;;30.53;15.17;;;;;;;13.33;79.18;100159.53;5084278;28;20031;-72
2023/05/15 07:10:01;;;;;;;28.25;16.17;;;;;;;13.35;79.22;100153.34;5083169;28;20412;-72
2023/05/15 07:12:26;;;;;;;35.80;16.73;;;;;;;13.40;79.14;100161.19;5093958;28;20016;-72
2023/05/15 07:14:52;;;;;;;30.73;16.60;;;;;;;13.43;78.96;100157.63;5076850;28;20067;-72
2023/05/15 07:17:18;;;;;;;33.37;16.87;;;;;;;13.45;79.08;100155.84;5077101;28;20535;-72
2023/05/15 07:19:44;;;;;;;30.20;16.02;;;;;;;13.48;78.86;100150.47;5077272;28;20435;-72
2023/05/15 07:22:09;;;;;;;32.88;17.13;;;;;;;13.51;78.85;100154.84;5075954;28;20082;-72
2023/05/15 07:24:35;;;;;;;35.00;17.83;;;;;;;13.54;78.92;100154.81;5077157;28;20056;-72
2023/05/15 07:27:00;;;;;;;34.87;17.57;;;;;;;13.58;79.01;100156.47;5077301;28;20055;-72
2023/05/15 07:29:26;;;;;;;31.40;18.35;;;;;;;13.62;78.91;100156.41;5076932;28;20020;-72
2023/05/15 07:31:51;;;;;;;33.77;17.93;;;;;;;13.65;78.72;100158.13;5082211;28;20023;-72
2023/05/15 07:34:17;;;;;;;26.98;16.15;;;;;;;13.68;78.59;100150.13;5080776;28;20027;-72
2023/05/15 07:36:42;;;;;;;26.53;16.77;;;;;;;13.69;78.76;100151.88;5079185;28;20028;-72
2023/05/15 07:39:10;;;;;;;31.37;16.83;;;;;;;13.75;78.56;100154.41;5076709;28;20033;-72
2023/05/15 07:41:36;;;;;;;27.48;16.30;;;;;;;13.84;78.34;100155.13;5083801;28;20028;-72
2023/05/15 07:44:01;;;;;;;31.67;16.87;;;;;;;13.89;78.45;100150.63;5092235;28;20039;-72
2023/05/15 07:46:27;;;;;;;30.47;16.87;;;;;;;13.92;78.45;100148.78;5096661;28;20027;-72
2023/05/15 07:48:53;;;;;;;28.20;16.30;;;;;;;13.97;78.10;100146.03;5096812;28;20047;-72
2023/05/15 07:51:18;;;;;;;27.98;15.77;;;;;;;14.01;78.00;100152.16;5096502;28;20167;-72
2023/05/15 07:53:44;;;;;;;28.47;16.27;;;;;;;14.03;77.97;100151.22;5078473;28;20468;-72
2023/05/15 07:56:10;;;;;;;27.60;15.40;;;;;;;14.07;77.84;100150.25;5076725;28;20484;-72
2023/05/15 07:58:37;;;;;;;27.35;16.50;;;;;;;14.10;77.81;100148.44;5076685;28;20535;-72
2023/05/15 08:01:03;;;;;;;26.90;15.40;;;;;;;14.16;77.87;100146.53;5076519;28;20460;-72
2023/05/15 08:03:28;;;;;;;26.17;15.23;;;;;;;14.28;77.63;100145.41;5076387;28;20064;-72
2023/05/15 08:05:54;;;;;;;32.88;16.80;;;;;;;14.40;77.56;100146.06;5086212;28;20507;-72
2023/05/15 08:08:20;;;;;;;26.50;15.93;;;;;;;14.52;77.25;100144.91;5078558;28;20395;-72
2023/05/15 08:10:45;;;;;;;28.00;15.73;;;;;;;14.60;76.91;100145.59;5088001;28;20020;-73
2023/05/15 08:13:11;;;;;;;28.63;14.80;;;;;;;14.67;76.96;100146.34;5086921;28;20813;-72
2023/05/15 08:15:36;;;;;;;26.83;14.67;;;;;;;14.76;76.55;100146.16;5076577;28;20090;-72
2023/05/15 08:18:07;;;;;;;27.63;14.43;;;;;;;14.89;76.19;100137.00;5076103;28;20071;-72
2023/05/15 08:20:33;;;;;;;29.30;16.30;;;;;;;15.03;76.29;100133.13;5076782;28;20035;-72
2023/05/15 08:22:58;;;;;;;23.83;13.90;;;;;;;15.19;75.61;100129.19;5075167;28;20103;-71
2023/05/15 08:25:23;;;;;;;23.90;14.00;;;;;;;15.30;75.19;100130.69;5076381;28;20120;-72
2023/05/15 08:27:49;;;;;;;24.20;13.73;;;;;;;15.45;74.92;100124.13;5076440;28;20024;-72
2023/05/15 08:30:14;;;;;;;25.63;14.33;;;;;;;15.60;74.30;100131.66;5076305;28;20024;-71
2023/05/15 08:32:42;;;;;;;23.17;13.48;;;;;;;15.71;74.00;100123.41;5086529;28;20031;-72
2023/05/15 08:35:07;;;;;;;20.70;12.13;;;;;;;15.79;73.55;100124.09;5078150;28;20393;-71
2023/05/15 08:37:33;;;;;;;22.30;13.15;;;;;;;15.92;73.48;100126.41;5078405;28;20073;-71
2023/05/15 08:39:58;;;;;;;20.80;12.90;;;;;;;15.98;72.97;100126.22;5089477;28;20032;-71
2023/05/15 08:42:32;;;;;;;23.77;13.33;;;;;;;15.94;71.46;100121.94;5078371;28;20030;-71
2023/05/15 08:44:59;;;;;;;20.33;12.15;;;;;;;15.93;72.47;100125.50;5076262;28;20029;-71
2023/05/15 08:47:27;;;;;;;20.55;12.13;;;;;;;15.96;72.00;100127.22;5083622;28;20016;-73
2023/05/15 08:50:06;;;;;;;21.17;11.85;;;;;;;15.94;71.90;100124.59;5096439;28;20028;-72
2023/05/15 08:52:32;;;;;;;23.80;11.73;;;;;;;15.98;71.85;100120.91;5089240;28;20431;-72
2023/05/15 08:54:58;;;;;;;21.13;12.23;;;;;;;16.06;71.51;100126.91;5076175;28;20021;-73
2023/05/15 08:57:26;;;;;;;21.65;11.60;;;;;;;16.14;71.24;100129.31;5076368;28;20040;-71
2023/05/15 08:59:53;;;;;;;23.92;13.40;;;;;;;16.21;71.30;100132.66;5076154;28;20477;-72
2023/05/15 09:02:19;;;;;;;24.20;12.15;;;;;;;16.18;70.96;100127.44;5075885;28;20060;-72
2023/05/15 09:04:45;;;;;;;24.00;11.38;;;;;;;16.19;70.85;100137.16;5078942;28;20032;-71
2023/05/15 09:07:11;;;;;;;21.17;11.83;;;;;;;16.17;71.28;100133.66;5087831;28;20025;-72
2023/05/15 09:09:38;;;;;;;20.90;11.15;;;;;;;16.17;71.17;100139.00;5084701;28;20020;-72
2023/05/15 09:12:09;;;;;;;23.80;12.50;;;;;;;16.27;70.89;100135.13;5087726;28;20073;-72
2023/05/15 09:14:35;;;;;;;18.35;11.30;;;;;;;16.28;70.38;100139.56;5079682;28;20044;-72
2023/05/15 09:17:00;;;;;;;22.37;12.17;;;;;;;16.29;70.40;100141.28;5079263;28;20063;-71
2023/05/15 09:19:26;;;;;;;20.77;11.60;;;;;;;16.36;70.43;100139.28;5079532;28;20013;-71
2023/05/15 09:21:52;;;;;;;21.00;11.55;;;;;;;16.49;69.52;100137.13;5079426;28;20079;-72
2023/05/15 09:24:23;;;;;;;18.98;10.75;;;;;;;16.56;69.52;100133.41;5079247;28;20024;-72
2023/05/15 09:27:03;;;;;;;17.40;10.30;;;;;;;16.70;69.03;100132.06;5079533;28;20081;-72
2023/05/15 09:29:31;;;;;;;23.33;11.10;;;;;;;16.76;68.88;100135.41;5098403;28;20480;-71
2023/05/15 09:32:00;;;;;;;18.73;10.77;;;;;;;16.87;68.12;100136.84;5101441;28;20057;-72
2023/05/15 09:34:33;;;;;;;15.98;9.73;;;;;;;17.06;67.14;100131.84;5080468;28;20055;-72
2023/05/15 09:37:01;;;;;;;20.77;10.05;;;;;;;17.26;67.12;100131.16;5083933;28;20056;-72
2023/05/15 09:39:26;;;;;;;17.63;9.63;;;;;;;17.40;66.79;100129.84;5099468;28;20077;-71
2023/05/15 09:41:55;;;;;;;14.85;8.73;;;;;;;17.59;66.41;100132.72;5085387;28;20021;-72
2023/05/15 09:44:26;;;;;;;18.90;9.85;;;;;;;17.53;65.56;100130.28;5086595;28;20017;-71
2023/05/15 09:46:52;;;;;;;16.90;9.93;;;;;;;17.31;65.69;100139.84;5078654;28;20028;-71
2023/05/15 09:49:20;;;;;;;20.58;9.82;;;;;;;17.15;65.80;100134.19;5077458;28;20040;-72
2023/05/15 09:51:49;;;;;;;15.60;9.85;;;;;;;17.00;65.84;100134.69;5080559;28;20046;-72
2023/05/15 09:54:17;;;;;;;16.75;9.88;;;;;;;16.85;65.76;100131.59;5077606;28;20020;-71
2023/05/15 09:56:44;;;;;;;17.30;10.00;;;;;;;17.01;65.80;100131.13;5078718;28;20032;-71
2023/05/15 09:59:17;;;;;;;17.83;9.63;;;;;;;17.31;65.54;100139.00;5078779;28;20380;-72
2023/05/15 10:01:45;;;;;;;15.18;8.98;;;;;;;17.48;65.52;100139.28;5078248;28;20042;-72
2023/05/15 10:04:11;;;;;;;18.63;10.35;;;;;;;17.48;65.07;100131.31;5078474;28;20060;-72
2023/05/15 10:06:45;;;;;;;15.93;8.38;;;;;;;17.42;64.20;100142.16;5088168;28;20067;-71
2023/05/15 10:09:12;;;;;;;16.92;8.95;;;;;;;17.34;64.79;100149.53;5078619;28;20033;-71
2023/05/15 10:11:44;;;;;;;15.50;9.03;;;;;;;17.34;64.98;100138.91;5085093;28;20483;-72
2023/05/15 10:14:12;;;;;;;17.27;9.23;;;;;;;17.35;65.04;100140.63;5080756;28;20029;-72
2023/05/15 10:16:39;;;;;;;16.83;9.38;;;;;;;17.42;64.79;100136.81;5078031;28;20438;-71
2023/05/15 10:19:09;;;;;;;19.92;10.07;;;;;;;17.48;64.42;100135.75;5080648;28;20032;-71
2023/05/15 10:21:39;;;;;;;20.63;9.73;;;;;;;17.48;64.34;100126.00;5078176;28;20032;-71
2023/05/15 10:24:06;;;;;;;16.13;9.27;;;;;;;17.60;64.47;100118.47;5082793;28;20032;-70
2023/05/15 10:26:31;;;;;;;16.63;9.27;;;;;;;17.81;64.14;100116.81;5076749;28;20400;-70
2023/05/15 10:28:58;;;;;;;17.63;9.77;;;;;;;18.04;64.21;100112.47;5077812;28;20031;-71
2023/05/15 10:31:24;;;;;;;19.65;9.65;;;;;;;18.30;62.75;100113.25;5081678;28;20099;-71
2023/05/15 10:33:51;;;;;;;16.70;9.40;;;;;;;18.41;62.14;100107.50;5087029;28;20067;-71
2023/05/15 10:36:18;;;;;;;16.13;8.50;;;;;;;18.49;61.73;100106.28;5077826;28;20103;-70
2023/05/15 10:38:45;;;;;;;14.27;8.57;;;;;;;18.63;61.49;100100.41;5077677;28;20056;-71
2023/05/15 10:41:12;;;;;;;20.48;8.60;;;;;;;18.85;61.56;100083.50;5085102;28;20032;-70
2023/05/15 10:43:40;;;;;;;17.63;7.88;;;;;;;19.08;60.44;100089.72;5086202;28;20107;-71
2023/05/15 10:46:07;;;;;;;14.05;8.52;;;;;;;19.19;60.26;100098.16;5097384;28;20039;-71
2023/05/15 10:48:34;;;;;;;18.10;8.23;;;;;;;19.32;59.87;100097.63;5097776;28;20121;-71
2023/05/15 10:51:00;;;;;;;14.48;7.90;;;;;;;19.42;59.44;100085.63;5097630;28;20027;-71
2023/05/15 10:53:26;;;;;;;20.17;8.52;;;;;;;19.51;58.89;100093.22;5081148;28;20033;-71
2023/05/15 10:55:52;;;;;;;13.90;8.00;;;;;;;19.58;59.17;100083.13;5077411;28;20027;-70
2023/05/15 10:58:22;;;;;;;16.90;8.50;;;;;;;19.59;58.00;100079.53;5077374;28;20320;-70
2023/05/15 11:00:47;;;;;;;13.45;7.80;;;;;;;19.64;58.85;100066.81;5077531;28;20027;-70
2023/05/15 11:03:14;;;;;;;13.60;7.30;;;;;;;19.50;58.98;100063.88;5077147;28;20025;-71
2023/05/15 11:06:09;;;;;;;14.37;8.13;;;;;;;19.50;58.65;100072.78;5081961;28;20030;-71
2023/05/15 11:08:39;;;;;;;14.95;7.90;;;;;;;19.67;58.64;100071.16;5077588;28;20020;-71